createdAt,value
2022-12-08T00:01:31.069Z,8.02
2022-12-08T00:04:02.670Z,8.12
2022-12-08T00:06:53.204Z,8.10
2022-12-08T00:09:26.050Z,7.88
2022-12-08T00:11:57.705Z,8.03
2022-12-08T00:14:27.939Z,7.94
2022-12-08T00:16:55.696Z,7.80
2022-12-08T00:19:24.221Z,7.98
2022-12-08T00:21:51.983Z,7.37
2022-12-08T00:24:19.739Z,7.54
2022-12-08T00:26:47.975Z,7.94
2022-12-08T00:29:17.563Z,8.05
2022-12-08T00:31:45.185Z,8.10
2022-12-08T00:34:14.214Z,8.06
2022-12-08T00:36:42.252Z,7.48
2022-12-08T00:39:10.838Z,8.13
2022-12-08T00:41:56.564Z,8.01
2022-12-08T00:44:24.092Z,7.83
2022-12-08T00:46:51.641Z,7.86
2022-12-08T00:49:19.698Z,7.88
2022-12-08T00:51:47.215Z,7.89
2022-12-08T00:54:15.039Z,7.56
2022-12-08T00:56:42.410Z,7.95
2022-12-08T00:59:10.558Z,8.02
2022-12-08T01:01:38.193Z,8.05
2022-12-08T01:04:13.563Z,8.09
2022-12-08T01:06:41.128Z,7.88
2022-12-08T01:09:09.094Z,8.19
2022-12-08T01:11:37.062Z,8.06
2022-12-08T01:14:04.721Z,7.75
2022-12-08T01:16:35.655Z,8.28
2022-12-08T01:19:03.634Z,8.25
2022-12-08T01:21:31.076Z,8.26
2022-12-08T01:24:00.393Z,8.26
2022-12-08T01:26:28.040Z,8.29
2022-12-08T01:28:55.909Z,8.31
2022-12-08T01:31:23.507Z,7.79
2022-12-08T01:33:51.182Z,8.20
2022-12-08T01:36:26.179Z,8.19
2022-12-08T01:38:54.264Z,7.40
2022-12-08T01:41:23.949Z,8.11
2022-12-08T01:44:24.402Z,8.11
2022-12-08T01:46:53.876Z,8.05
2022-12-08T01:49:32.400Z,8.11
2022-12-08T01:52:04.308Z,8.15
2022-12-08T01:54:44.445Z,8.16
2022-12-08T01:57:17.801Z,8.03
2022-12-08T01:59:47.152Z,8.19
2022-12-08T02:02:14.619Z,8.20
2022-12-08T02:04:42.170Z,8.17
2022-12-08T02:07:12.285Z,8.19
2022-12-08T02:09:40.871Z,7.90
2022-12-08T02:12:10.432Z,8.25
2022-12-08T02:14:37.904Z,8.11
2022-12-08T02:17:45.634Z,8.26
2022-12-08T02:20:19.077Z,8.26
2022-12-08T02:22:49.399Z,8.24
2022-12-08T02:25:45.674Z,8.16
2022-12-08T02:28:38.726Z,7.47
2022-12-08T02:31:17.979Z,7.54
2022-12-08T02:34:09.910Z,7.63
2022-12-08T02:36:59.955Z,7.46
2022-12-08T02:40:05.600Z,7.41
2022-12-08T02:42:52.847Z,7.52
2022-12-08T02:45:26.112Z,7.69
2022-12-08T02:47:54.500Z,7.77
2022-12-08T02:50:21.939Z,7.82
2022-12-08T02:52:49.637Z,7.65
2022-12-08T02:55:25.296Z,7.63
2022-12-08T02:58:35.626Z,7.83
2022-12-08T03:01:26.080Z,7.86
2022-12-08T03:04:11.585Z,7.97
2022-12-08T03:07:04.272Z,7.85
2022-12-08T03:09:50.022Z,8.02
2022-12-08T03:12:25.605Z,8.06
2022-12-08T03:15:00.301Z,7.67
2022-12-08T03:17:31.267Z,7.75
2022-12-08T03:20:04.573Z,7.74
2022-12-08T03:22:33.626Z,8.08
2022-12-08T03:25:01.726Z,8.00
2022-12-08T03:27:31.465Z,7.84
2022-12-08T03:30:00.720Z,7.95
2022-12-08T03:32:34.976Z,8.06
2022-12-08T03:35:07.705Z,8.04
2022-12-08T03:37:40.179Z,8.07
2022-12-08T03:40:10.023Z,8.08
2022-12-08T03:42:37.452Z,8.10
2022-12-08T03:45:05.714Z,8.13
2022-12-08T03:47:33.104Z,8.21
2022-12-08T03:50:00.345Z,8.23
2022-12-08T03:52:27.787Z,8.08
2022-12-08T03:54:55.343Z,8.12
2022-12-08T03:57:22.762Z,8.20
2022-12-08T03:59:50.079Z,8.02
2022-12-08T04:02:17.466Z,8.04
2022-12-08T04:04:44.861Z,8.17
2022-12-08T04:07:12.310Z,8.16
2022-12-08T04:09:41.833Z,8.19
2022-12-08T04:12:09.630Z,8.15
2022-12-08T04:14:37.243Z,8.15
2022-12-08T04:17:04.700Z,7.80
2022-12-08T04:19:32.003Z,8.20
2022-12-08T04:21:59.317Z,8.21
2022-12-08T04:24:26.756Z,8.01
2022-12-08T04:26:54.024Z,8.23
2022-12-08T04:29:21.567Z,8.26
2022-12-08T04:31:48.969Z,8.25
2022-12-08T04:34:16.438Z,7.89
2022-12-08T04:36:43.737Z,7.17
2022-12-08T04:39:11.299Z,8.08
2022-12-08T04:41:38.751Z,8.12
2022-12-08T04:44:06.132Z,8.07
2022-12-08T04:46:33.438Z,8.25
2022-12-08T04:49:00.833Z,8.14
2022-12-08T04:51:28.279Z,8.09
2022-12-08T04:53:55.660Z,8.14
2022-12-08T04:56:23.033Z,8.27
2022-12-08T04:58:50.447Z,8.18
2022-12-08T05:01:18.023Z,8.08
2022-12-08T05:03:45.354Z,8.22
2022-12-08T05:06:14.202Z,8.21
2022-12-08T05:08:42.930Z,7.99
2022-12-08T05:11:11.770Z,8.06
2022-12-08T05:13:39.101Z,8.02
2022-12-08T05:16:11.982Z,7.97
2022-12-08T05:18:40.569Z,7.56
2022-12-08T05:21:09.020Z,7.78
2022-12-08T05:23:36.671Z,7.48
2022-12-08T05:26:04.339Z,7.67
2022-12-08T05:28:41.331Z,7.83
2022-12-08T05:31:10.220Z,7.90
2022-12-08T05:33:37.795Z,7.98
2022-12-08T05:36:05.419Z,7.99
2022-12-08T05:38:32.919Z,8.02
2022-12-08T05:41:00.439Z,8.12
2022-12-08T05:43:28.115Z,7.84
2022-12-08T05:45:55.651Z,8.11
2022-12-08T05:48:25.984Z,7.83
2022-12-08T05:50:54.293Z,7.86
2022-12-08T05:53:21.712Z,8.00
2022-12-08T05:55:49.503Z,7.79
2022-12-08T05:58:19.742Z,7.90
2022-12-08T06:00:48.911Z,8.20
2022-12-08T06:03:18.923Z,8.02
2022-12-08T06:05:47.936Z,7.74
2022-12-08T06:08:15.569Z,8.22
2022-12-08T06:10:44.948Z,8.29
2022-12-08T06:13:12.739Z,8.26
2022-12-08T06:15:40.962Z,8.09
2022-12-08T06:18:08.399Z,8.07
2022-12-08T06:20:35.819Z,8.09
2022-12-08T06:23:03.688Z,8.20
2022-12-08T06:25:31.169Z,8.26
2022-12-08T06:27:58.497Z,8.19
2022-12-08T06:30:26.271Z,8.07
2022-12-08T06:32:53.511Z,8.31
2022-12-08T06:35:20.600Z,8.18
2022-12-08T06:37:47.674Z,8.67
2022-12-08T06:40:14.894Z,8.50
2022-12-08T06:42:44.484Z,8.30
2022-12-08T06:45:14.007Z,8.32
2022-12-08T06:47:41.652Z,7.44
2022-12-08T06:50:10.652Z,8.29
2022-12-08T06:52:47.252Z,8.16
2022-12-08T06:55:50.677Z,8.05
2022-12-08T06:58:07.999Z,8.32
2022-12-08T07:00:35.300Z,8.12
2022-12-08T07:03:02.625Z,8.30
2022-12-08T07:05:29.857Z,8.39
2022-12-08T07:07:57.120Z,8.38
2022-12-08T07:10:24.641Z,8.39
2022-12-08T07:12:52.098Z,8.31
2022-12-08T07:15:21.248Z,8.38
2022-12-08T07:17:49.233Z,8.43
2022-12-08T07:20:16.592Z,8.34
2022-12-08T07:22:54.159Z,8.34
2022-12-08T07:25:21.496Z,8.31
2022-12-08T07:27:51.380Z,8.40
2022-12-08T07:30:20.262Z,8.37
2022-12-08T07:32:47.662Z,8.61
2022-12-08T07:35:14.878Z,8.67
2022-12-08T07:37:42.118Z,8.63
2022-12-08T07:40:10.163Z,8.66
2022-12-08T07:42:37.557Z,8.65
2022-12-08T07:45:05.122Z,8.28
2022-12-08T07:47:32.221Z,8.62
2022-12-08T07:49:59.407Z,8.53
2022-12-08T07:52:26.577Z,8.70
2022-12-08T07:54:53.610Z,8.72
2022-12-08T07:57:20.761Z,8.72
2022-12-08T07:59:47.930Z,8.02
2022-12-08T08:02:25.345Z,8.73
2022-12-08T08:04:54.456Z,8.66
2022-12-08T08:07:22.223Z,7.83
2022-12-08T08:09:49.351Z,8.43
2022-12-08T08:12:32.793Z,8.48
2022-12-08T08:15:01.135Z,8.67
2022-12-08T08:17:29.429Z,8.60
2022-12-08T08:19:57.043Z,8.71
2022-12-08T08:22:25.731Z,8.68
2022-12-08T08:24:53.757Z,8.50
2022-12-08T08:27:21.314Z,8.62
2022-12-08T08:29:48.535Z,8.54
2022-12-08T08:32:15.740Z,8.66
2022-12-08T08:34:43.123Z,8.69
2022-12-08T08:37:10.378Z,8.53
2022-12-08T08:39:37.588Z,8.77
2022-12-08T08:42:05.025Z,8.80
2022-12-08T08:44:32.302Z,8.74
2022-12-08T08:46:59.426Z,8.86
2022-12-08T08:49:26.825Z,8.77
2022-12-08T08:51:54.016Z,8.74
2022-12-08T08:54:21.277Z,8.76
2022-12-08T08:56:48.563Z,8.82
2022-12-08T08:59:15.685Z,8.79
2022-12-08T09:01:43.034Z,8.48
2022-12-08T09:04:11.102Z,8.87
2022-12-08T09:06:38.434Z,8.85
2022-12-08T09:09:05.954Z,8.89
2022-12-08T09:11:33.408Z,8.69
2022-12-08T09:14:00.543Z,8.85
2022-12-08T09:16:31.034Z,8.94
2022-12-08T09:19:01.520Z,8.92
2022-12-08T09:21:30.702Z,8.84
2022-12-08T09:23:59.286Z,9.01
2022-12-08T09:26:28.189Z,9.06
2022-12-08T09:28:57.220Z,8.90
2022-12-08T09:31:25.251Z,8.68
2022-12-08T09:33:52.726Z,8.91
2022-12-08T09:36:20.712Z,8.88
2022-12-08T09:38:50.152Z,9.06
2022-12-08T09:41:24.567Z,9.09
2022-12-08T09:44:29.475Z,9.11
2022-12-08T09:46:59.124Z,9.04
2022-12-08T09:49:38.591Z,9.16
2022-12-08T09:52:12.745Z,9.10
2022-12-08T09:54:40.326Z,9.00
2022-12-08T09:57:15.069Z,8.83
2022-12-08T09:59:48.579Z,9.36
2022-12-08T10:02:28.485Z,9.26
2022-12-08T10:04:57.202Z,9.26
2022-12-08T10:07:58.801Z,9.18
2022-12-08T10:10:47.028Z,9.17
2022-12-08T10:13:26.415Z,9.23
2022-12-08T10:15:53.608Z,9.22
2022-12-08T10:18:27.704Z,9.18
2022-12-08T10:21:00.414Z,9.17
2022-12-08T10:23:27.509Z,9.19
2022-12-08T10:26:07.960Z,9.25
2022-12-08T10:28:41.388Z,8.87
2022-12-08T10:31:25.707Z,8.77
2022-12-08T10:34:24.398Z,9.13
2022-12-08T10:36:59.171Z,9.14
2022-12-08T10:39:39.693Z,9.10
2022-12-08T10:42:15.878Z,9.14
2022-12-08T10:45:01.004Z,9.21
2022-12-08T10:47:29.470Z,9.16
2022-12-08T10:50:15.595Z,9.27
2022-12-08T10:52:42.836Z,8.45
2022-12-08T10:55:21.056Z,9.11
2022-12-08T10:57:51.474Z,9.14
2022-12-08T11:00:27.475Z,9.34
2022-12-08T11:03:05.367Z,9.08
2022-12-08T11:05:37.331Z,8.98
2022-12-08T11:08:06.137Z,9.36
2022-12-08T11:10:46.451Z,9.13
2022-12-08T11:13:21.481Z,9.34
2022-12-08T11:15:49.951Z,9.13
2022-12-08T11:18:28.235Z,9.31
2022-12-08T11:21:07.761Z,9.18
2022-12-08T11:23:36.828Z,9.00
2022-12-08T11:26:24.567Z,8.98
2022-12-08T11:28:52.350Z,8.88
2022-12-08T11:31:43.688Z,9.03
2022-12-08T11:34:36.551Z,9.22
2022-12-08T11:37:17.719Z,9.06
2022-12-08T11:39:49.580Z,9.11
2022-12-08T11:42:20.627Z,9.23
2022-12-08T11:44:57.568Z,9.27
2022-12-08T11:47:25.036Z,9.29
2022-12-08T11:50:02.377Z,9.31
2022-12-08T11:52:45.962Z,9.26
2022-12-08T11:56:04.465Z,9.30
2022-12-08T11:59:29.069Z,9.26
2022-12-08T12:01:58.342Z,9.29
2022-12-08T12:04:38.075Z,9.24
2022-12-08T12:07:21.677Z,9.32
2022-12-08T12:10:23.687Z,9.32
2022-12-08T12:13:06.267Z,9.30
2022-12-08T12:16:29.089Z,9.25
2022-12-08T12:19:02.741Z,9.20
2022-12-08T12:21:34.866Z,8.80
2022-12-08T12:24:19.676Z,9.27
2022-12-08T12:27:16.414Z,9.27
2022-12-08T12:29:55.692Z,8.97
2022-12-08T12:32:24.762Z,9.18
2022-12-08T12:35:02.642Z,9.37
2022-12-08T12:37:40.009Z,9.39
2022-12-08T12:40:20.763Z,9.41
2022-12-08T12:43:09.844Z,9.43
2022-12-08T12:45:43.584Z,9.33
2022-12-08T12:48:22.676Z,9.51
2022-12-08T12:50:51.987Z,9.26
2022-12-08T12:53:19.122Z,9.38
2022-12-08T12:55:46.324Z,9.42
2022-12-08T12:58:28.910Z,9.40
2022-12-08T13:01:14.261Z,9.37
2022-12-08T13:03:50.042Z,9.36
2022-12-08T13:06:35.148Z,9.36
2022-12-08T13:09:21.517Z,8.87
2022-12-08T13:11:58.644Z,9.29
2022-12-08T13:14:38.099Z,8.76
2022-12-08T13:17:11.706Z,9.24
2022-12-08T13:19:40.882Z,9.13
2022-12-08T13:22:45.810Z,9.05
2022-12-08T13:25:45.775Z,9.36
2022-12-08T13:28:15.905Z,9.37
2022-12-08T13:30:44.846Z,9.37
2022-12-08T13:33:19.182Z,9.34
2022-12-08T13:35:53.675Z,9.37
2022-12-08T13:38:25.483Z,9.28
2022-12-08T13:40:55.893Z,9.36
2022-12-08T13:44:24.810Z,9.41
2022-12-08T13:47:31.660Z,9.33
2022-12-08T13:58:28.520Z,9.20
2022-12-08T14:01:08.738Z,9.30
2022-12-08T14:06:49.539Z,9.32
2022-12-08T14:09:23.368Z,9.06
2022-12-08T14:11:52.788Z,9.01
2022-12-08T14:14:46.277Z,9.28
2022-12-08T14:17:15.507Z,9.36
2022-12-08T14:19:45.027Z,9.14
2022-12-08T14:22:15.514Z,9.37
2022-12-08T14:24:48.286Z,9.39
2022-12-08T14:27:20.919Z,9.24
2022-12-08T14:29:52.723Z,9.36
2022-12-08T14:32:30.359Z,8.99
2022-12-08T14:35:20.819Z,9.19
2022-12-08T14:38:16.477Z,9.19
2022-12-08T14:40:53.212Z,9.24
2022-12-08T14:43:27.332Z,9.25
2022-12-08T14:46:01.493Z,9.15
2022-12-08T14:48:34.098Z,9.18
2022-12-08T14:51:09.415Z,9.22
2022-12-08T14:53:43.485Z,8.73
2022-12-08T14:56:24.799Z,9.25
2022-12-08T14:59:21.204Z,9.22
2022-12-08T15:01:51.600Z,9.26
2022-12-08T15:04:24.796Z,9.03
2022-12-08T15:06:54.442Z,9.22
2022-12-08T15:09:50.099Z,9.26
2022-12-08T15:12:27.041Z,9.25
2022-12-08T15:15:01.727Z,9.23
2022-12-08T15:17:40.847Z,9.22
2022-12-08T15:20:31.686Z,9.30
2022-12-08T15:23:02.433Z,9.31
2022-12-08T15:25:29.793Z,9.31
2022-12-08T15:27:58.189Z,9.18
2022-12-08T15:30:26.686Z,9.09
2022-12-08T15:32:56.254Z,9.35
2022-12-08T15:35:23.732Z,9.18
2022-12-08T15:37:51.031Z,9.25
2022-12-08T15:40:22.967Z,9.03
2022-12-08T15:42:50.284Z,9.06
2022-12-08T15:45:18.155Z,9.15
2022-12-08T15:47:46.141Z,9.16
2022-12-08T15:50:18.589Z,9.06
2022-12-08T15:52:45.896Z,8.86
2022-12-08T15:55:19.031Z,9.19
2022-12-08T16:00:54.140Z,9.05
2022-12-08T16:04:09.416Z,9.07
2022-12-08T16:09:20.903Z,8.98
2022-12-08T16:12:09.605Z,8.55
2022-12-08T16:17:26.383Z,9.02
2022-12-08T16:19:53.601Z,8.81
2022-12-08T16:22:54.116Z,9.00
2022-12-08T16:25:20.412Z,8.90
2022-12-08T16:28:36.876Z,9.14
2022-12-08T16:30:41.838Z,8.56
2022-12-08T16:33:10.733Z,9.12
2022-12-08T16:35:38.217Z,8.97
2022-12-08T16:38:05.833Z,9.01
2022-12-08T16:40:33.256Z,8.74
2022-12-08T16:43:00.900Z,7.38
2022-12-08T16:45:30.337Z,7.10
2022-12-08T16:48:02.009Z,7.87
2022-12-08T16:50:34.842Z,7.79
2022-12-08T16:53:08.455Z,7.87
2022-12-08T16:55:36.288Z,7.81
2022-12-08T16:58:03.789Z,7.72
2022-12-08T17:00:37.071Z,7.72
2022-12-08T17:03:08.861Z,7.14
2022-12-08T17:05:39.292Z,6.86
2022-12-08T17:08:06.923Z,7.64
2022-12-08T17:10:39.541Z,7.07
2022-12-08T17:13:07.722Z,7.32
2022-12-08T17:15:35.602Z,7.48
2022-12-08T17:18:03.490Z,7.44
2022-12-08T17:20:30.762Z,7.19
2022-12-08T17:22:58.817Z,7.59
2022-12-08T17:25:27.128Z,7.68
2022-12-08T17:27:54.713Z,7.50
2022-12-08T17:30:22.197Z,7.74
2022-12-08T17:32:49.976Z,7.76
2022-12-08T17:35:17.277Z,7.67
2022-12-08T17:37:44.658Z,7.64
2022-12-08T17:40:12.010Z,7.74
2022-12-08T17:42:39.317Z,7.81
2022-12-08T17:45:08.265Z,7.84
2022-12-08T17:47:35.742Z,7.70
2022-12-08T17:50:04.537Z,7.62
2022-12-08T17:52:31.915Z,7.96
2022-12-08T17:54:59.423Z,8.03
2022-12-08T17:57:26.773Z,8.11
2022-12-08T17:59:54.084Z,8.04
2022-12-08T18:02:21.539Z,8.18
2022-12-08T18:04:48.876Z,8.51
2022-12-08T18:07:16.704Z,8.30
2022-12-08T18:09:43.878Z,8.32
2022-12-08T18:12:11.552Z,8.83
2022-12-08T18:14:38.749Z,8.61
2022-12-08T18:17:06.189Z,8.55
2022-12-08T18:19:33.438Z,8.50
2022-12-08T18:22:01.985Z,8.39
2022-12-08T18:24:32.770Z,8.28
2022-12-08T18:26:59.956Z,8.52
2022-12-08T18:29:27.760Z,8.42
2022-12-08T18:31:55.138Z,8.32
2022-12-08T18:34:22.768Z,8.53
2022-12-08T18:36:50.046Z,8.46
2022-12-08T18:39:29.781Z,8.45
2022-12-08T18:41:58.749Z,8.30
2022-12-08T18:44:26.086Z,8.14
2022-12-08T18:46:53.277Z,8.53
2022-12-08T18:49:21.008Z,8.57
2022-12-08T18:51:48.373Z,8.39
2022-12-08T18:54:15.773Z,8.50
2022-12-08T18:56:43.141Z,8.45
2022-12-08T18:59:12.557Z,8.57
2022-12-08T19:01:40.664Z,8.62
2022-12-08T19:06:57.802Z,8.24
2022-12-08T19:09:27.079Z,7.46
2022-12-08T19:11:55.234Z,8.09
2022-12-08T19:14:28.100Z,8.15
2022-12-08T19:16:57.759Z,8.29
2022-12-08T19:19:26.120Z,7.99
2022-12-08T19:21:53.875Z,8.16
2022-12-08T19:24:21.933Z,8.28
2022-12-08T19:26:49.184Z,8.41
2022-12-08T19:29:17.175Z,8.48
2022-12-08T19:31:44.610Z,8.50
2022-12-08T19:34:15.710Z,8.40
2022-12-08T19:36:44.210Z,7.79
2022-12-08T19:39:35.377Z,8.34
2022-12-08T19:42:22.272Z,8.53
2022-12-08T19:44:52.756Z,8.51
2022-12-08T19:47:26.405Z,8.51
2022-12-08T19:50:16.765Z,8.45
2022-12-08T19:52:44.703Z,8.56
2022-12-08T19:55:12.822Z,8.58
2022-12-08T19:57:40.592Z,8.56
2022-12-08T20:00:09.656Z,8.65
2022-12-08T20:02:37.813Z,8.69
2022-12-08T20:05:06.531Z,8.75
2022-12-08T20:07:37.236Z,8.83
2022-12-08T20:10:08.719Z,8.59
2022-12-08T20:12:36.167Z,8.95
2022-12-08T20:15:03.991Z,9.01
2022-12-08T20:17:31.168Z,8.70
2022-12-08T20:20:03.877Z,8.92
2022-12-08T20:22:34.516Z,9.04
2022-12-08T20:25:02.875Z,8.92
2022-12-08T20:27:31.099Z,9.02
2022-12-08T20:29:58.624Z,8.72
2022-12-08T20:32:26.161Z,9.09
2022-12-08T20:34:54.122Z,9.01
2022-12-08T20:37:21.498Z,8.89
2022-12-08T20:39:48.981Z,8.26
2022-12-08T20:42:21.172Z,8.63
2022-12-08T20:44:48.687Z,8.81
2022-12-08T20:47:16.724Z,8.81
2022-12-08T20:49:43.971Z,8.69
2022-12-08T20:52:11.567Z,8.07
2022-12-08T20:54:39.181Z,8.60
2022-12-08T20:57:09.875Z,8.73
2022-12-08T20:59:39.484Z,8.58
2022-12-08T21:02:07.682Z,8.43
2022-12-08T21:04:36.018Z,8.71
2022-12-08T21:07:03.390Z,8.81
2022-12-08T21:09:31.473Z,8.83
2022-12-08T21:11:59.809Z,8.84
2022-12-08T21:14:29.437Z,7.98
2022-12-08T21:16:59.945Z,8.65
2022-12-08T21:19:28.020Z,8.80
2022-12-08T21:21:55.463Z,8.73
2022-12-08T21:24:22.921Z,8.30
2022-12-08T21:26:50.499Z,8.84
2022-12-08T21:29:17.987Z,8.17
2022-12-08T21:31:45.593Z,8.89
2022-12-08T21:34:13.132Z,7.99
2022-12-08T21:36:40.619Z,8.85
2022-12-08T21:39:12.853Z,8.83
2022-12-08T21:41:58.726Z,8.82
2022-12-08T21:44:26.448Z,8.71
2022-12-08T21:46:53.976Z,8.66
2022-12-08T21:49:21.481Z,8.18
2022-12-08T21:51:48.789Z,8.59
2022-12-08T21:54:19.072Z,8.45
2022-12-08T21:56:49.175Z,8.96
2022-12-08T21:59:17.707Z,8.70
2022-12-08T22:01:45.498Z,8.90
2022-12-08T22:04:18.212Z,8.91
2022-12-08T22:06:45.996Z,8.87
2022-12-08T22:09:15.282Z,8.83
2022-12-08T22:11:43.950Z,8.85
2022-12-08T22:14:14.830Z,8.95
2022-12-08T22:16:43.203Z,9.01
2022-12-08T22:19:11.056Z,8.68
2022-12-08T22:21:38.443Z,8.98
2022-12-08T22:24:06.354Z,8.84
2022-12-08T22:26:33.958Z,9.01
2022-12-08T22:29:01.350Z,8.94
2022-12-08T22:31:28.505Z,8.93
2022-12-08T22:33:55.856Z,8.84
2022-12-08T22:36:25.456Z,8.83
2022-12-08T22:38:53.452Z,8.87
2022-12-08T22:41:21.592Z,8.84
2022-12-08T22:43:49.907Z,8.74
2022-12-08T22:46:20.607Z,8.74
2022-12-08T22:48:48.525Z,8.90
2022-12-08T22:51:15.833Z,8.35
2022-12-08T22:53:43.358Z,8.88
2022-12-08T22:56:12.708Z,8.81
2022-12-08T22:58:41.352Z,8.18
2022-12-08T23:01:19.478Z,8.93
2022-12-08T23:03:46.945Z,8.89
2022-12-08T23:06:14.257Z,8.91
2022-12-08T23:08:41.791Z,8.88
2022-12-08T23:11:09.100Z,8.46
2022-12-08T23:13:38.285Z,8.89
2022-12-08T23:16:08.568Z,8.95
2022-12-08T23:18:36.662Z,8.96
2022-12-08T23:21:06.421Z,8.96
2022-12-08T23:23:34.642Z,8.89
2022-12-08T23:26:01.873Z,8.78
2022-12-08T23:28:29.322Z,8.90
2022-12-08T23:30:56.797Z,8.84
2022-12-08T23:33:24.074Z,8.79
2022-12-08T23:35:58.284Z,8.78
2022-12-08T23:38:26.401Z,8.89
2022-12-08T23:40:53.807Z,8.92
2022-12-08T23:43:21.145Z,8.40
2022-12-08T23:45:48.595Z,8.52
2022-12-08T23:48:16.121Z,8.78
2022-12-08T23:50:43.869Z,8.67
2022-12-08T23:53:11.167Z,8.85
2022-12-08T23:55:38.434Z,8.83
2022-12-08T23:58:05.666Z,8.79
